sensor_id;sensor_type;location;lat;lon;timestamp;pressure;altitude;pressure_sealevel;temperature;humidity
7966;BME280;4028;43.272;26.932;2023-04-23T00:02:03;99217.66;;;9.80;100.00
7966;BME280;4028;43.272;26.932;2023-04-23T00:04:30;99215.84;;;9.80;100.00
7966;BME280;4028;43.272;26.932;2023-04-23T00:07:01;99219.91;;;9.84;100.00
7966;BME280;4028;43.272;26.932;2023-04-23T00:09:29;99214.88;;;9.81;100.00
7966;BME280;4028;43.272;26.932;2023-04-23T00:11:55;99212.81;;;9.85;100.00
7966;BME280;4028;43.272;26.932;2023-04-23T00:14:22;99208.91;;;9.79;100.00
7966;BME280;4028;43.272;26.932;2023-04-23T00:16:48;99204.03;;;9.75;100.00
7966;BME280;4028;43.272;26.932;2023-04-23T00:19:13;99203.19;;;9.74;100.00
7966;BME280;4028;43.272;26.932;2023-04-23T00:21:39;99199.97;;;9.61;100.00
7966;BME280;4028;43.272;26.932;2023-04-23T00:24:05;99198.56;;;9.67;100.00
7966;BME280;4028;43.272;26.932;2023-04-23T00:26:30;99197.75;;;9.66;100.00
7966;BME280;4028;43.272;26.932;2023-04-23T00:28:56;99198.47;;;9.68;100.00
7966;BME280;4028;43.272;26.932;2023-04-23T00:31:21;99207.66;;;9.74;100.00
7966;BME280;4028;43.272;26.932;2023-04-23T00:33:48;99193.44;;;9.65;100.00
7966;BME280;4028;43.272;26.932;2023-04-23T00:36:14;99200.28;;;9.68;100.00
7966;BME280;4028;43.272;26.932;2023-04-23T00:38:39;99191.38;;;9.69;100.00
7966;BME280;4028;43.272;26.932;2023-04-23T00:41:05;99201.78;;;9.60;100.00
7966;BME280;4028;43.272;26.932;2023-04-23T00:43:31;99191.72;;;9.45;100.00
7966;BME280;4028;43.272;26.932;2023-04-23T00:45:57;99193.53;;;9.44;100.00
7966;BME280;4028;43.272;26.932;2023-04-23T00:48:23;99198.81;;;9.44;100.00
7966;BME280;4028;43.272;26.932;2023-04-23T00:51:02;99200.66;;;9.53;100.00
7966;BME280;4028;43.272;26.932;2023-04-23T00:53:28;99172.53;;;9.33;100.00
7966;BME280;4028;43.272;26.932;2023-04-23T00:55:53;99199.66;;;9.45;100.00
7966;BME280;4028;43.272;26.932;2023-04-23T00:58:19;99164.69;;;9.12;100.00
7966;BME280;4028;43.272;26.932;2023-04-23T01:00:45;99204.75;;;9.36;100.00
7966;BME280;4028;43.272;26.932;2023-04-23T01:03:14;99200.19;;;9.38;100.00
7966;BME280;4028;43.272;26.932;2023-04-23T01:05:40;99195.75;;;9.39;100.00
7966;BME280;4028;43.272;26.932;2023-04-23T01:08:06;99201.72;;;9.41;100.00
7966;BME280;4028;43.272;26.932;2023-04-23T01:10:33;99190.56;;;9.28;100.00
7966;BME280;4028;43.272;26.932;2023-04-23T01:12:58;99200.03;;;9.30;100.00
7966;BME280;4028;43.272;26.932;2023-04-23T01:15:24;99196.94;;;9.25;100.00
7966;BME280;4028;43.272;26.932;2023-04-23T01:17:49;99203.63;;;9.29;100.00
7966;BME280;4028;43.272;26.932;2023-04-23T01:20:16;99206.09;;;9.21;100.00
7966;BME280;4028;43.272;26.932;2023-04-23T01:22:41;99206.38;;;9.18;100.00
7966;BME280;4028;43.272;26.932;2023-04-23T01:25:07;99199.97;;;9.11;100.00
7966;BME280;4028;43.272;26.932;2023-04-23T01:27:33;99193.81;;;9.01;100.00
7966;BME280;4028;43.272;26.932;2023-04-23T01:30:02;99211.88;;;9.05;100.00
7966;BME280;4028;43.272;26.932;2023-04-23T01:32:30;99212.47;;;9.09;100.00
7966;BME280;4028;43.272;26.932;2023-04-23T01:34:56;99214.66;;;9.04;100.00
7966;BME280;4028;43.272;26.932;2023-04-23T01:37:22;99213.97;;;9.02;100.00
7966;BME280;4028;43.272;26.932;2023-04-23T01:39:49;99199.25;;;9.09;100.00
7966;BME280;4028;43.272;26.932;2023-04-23T01:42:15;99207.47;;;9.06;100.00
7966;BME280;4028;43.272;26.932;2023-04-23T01:44:41;99214.13;;;9.10;100.00
7966;BME280;4028;43.272;26.932;2023-04-23T01:47:06;99207.75;;;9.13;100.00
7966;BME280;4028;43.272;26.932;2023-04-23T01:49:32;99209.38;;;9.04;100.00
7966;BME280;4028;43.272;26.932;2023-04-23T01:51:58;99217.28;;;9.04;100.00
7966;BME280;4028;43.272;26.932;2023-04-23T01:54:23;99218.66;;;8.98;100.00
7966;BME280;4028;43.272;26.932;2023-04-23T01:56:49;99217.38;;;8.93;100.00
7966;BME280;4028;43.272;26.932;2023-04-23T01:59:19;99222.38;;;8.86;100.00
7966;BME280;4028;43.272;26.932;2023-04-23T02:01:46;99219.72;;;8.86;100.00
7966;BME280;4028;43.272;26.932;2023-04-23T02:04:13;99222.63;;;8.83;100.00
7966;BME280;4028;43.272;26.932;2023-04-23T02:06:40;99215.91;;;8.79;100.00
7966;BME280;4028;43.272;26.932;2023-04-23T02:09:06;99213.03;;;8.82;100.00
7966;BME280;4028;43.272;26.932;2023-04-23T02:11:32;99216.38;;;8.84;100.00
7966;BME280;4028;43.272;26.932;2023-04-23T02:13:57;99212.44;;;8.78;100.00
7966;BME280;4028;43.272;26.932;2023-04-23T02:16:23;99207.41;;;8.66;100.00
7966;BME280;4028;43.272;26.932;2023-04-23T02:18:49;99194.66;;;8.71;100.00
7966;BME280;4028;43.272;26.932;2023-04-23T02:21:14;99214.84;;;8.81;100.00
7966;BME280;4028;43.272;26.932;2023-04-23T02:23:40;99210.41;;;8.82;100.00
7966;BME280;4028;43.272;26.932;2023-04-23T02:26:05;99208.78;;;8.70;100.00
7966;BME280;4028;43.272;26.932;2023-04-23T02:28:32;99214.91;;;8.70;100.00
7966;BME280;4028;43.272;26.932;2023-04-23T02:30:57;99210.88;;;8.66;100.00
7966;BME280;4028;43.272;26.932;2023-04-23T02:33:23;99208.03;;;8.58;100.00
7966;BME280;4028;43.272;26.932;2023-04-23T02:35:50;99210.03;;;8.66;100.00
7966;BME280;4028;43.272;26.932;2023-04-23T02:38:15;99170.03;;;8.40;100.00
7966;BME280;4028;43.272;26.932;2023-04-23T02:40:40;99209.75;;;8.69;100.00
7966;BME280;4028;43.272;26.932;2023-04-23T02:43:06;99208.16;;;8.56;100.00
7966;BME280;4028;43.272;26.932;2023-04-23T02:45:32;99212.69;;;8.45;100.00
7966;BME280;4028;43.272;26.932;2023-04-23T02:47:57;99213.13;;;8.50;100.00
7966;BME280;4028;43.272;26.932;2023-04-23T02:50:23;99212.09;;;8.41;100.00
7966;BME280;4028;43.272;26.932;2023-04-23T02:52:48;99207.78;;;8.40;100.00
7966;BME280;4028;43.272;26.932;2023-04-23T02:55:14;99219.66;;;8.34;100.00
7966;BME280;4028;43.272;26.932;2023-04-23T02:57:40;99216.53;;;8.41;100.00
7966;BME280;4028;43.272;26.932;2023-04-23T03:00:06;99211.63;;;8.36;100.00
7966;BME280;4028;43.272;26.932;2023-04-23T03:02:32;99213.19;;;8.27;100.00
7966;BME280;4028;43.272;26.932;2023-04-23T03:04:58;99215.59;;;8.30;100.00
7966;BME280;4028;43.272;26.932;2023-04-23T03:07:23;99215.69;;;8.29;100.00
7966;BME280;4028;43.272;26.932;2023-04-23T03:09:49;99221.69;;;8.31;100.00
7966;BME280;4028;43.272;26.932;2023-04-23T03:12:14;99217.41;;;8.30;100.00
7966;BME280;4028;43.272;26.932;2023-04-23T03:14:40;99216.22;;;8.23;100.00
7966;BME280;4028;43.272;26.932;2023-04-23T03:17:05;99223.56;;;8.19;100.00
7966;BME280;4028;43.272;26.932;2023-04-23T03:19:31;99228.84;;;8.19;100.00
7966;BME280;4028;43.272;26.932;2023-04-23T03:21:57;99219.97;;;8.20;100.00
7966;BME280;4028;43.272;26.932;2023-04-23T03:24:23;99228.53;;;8.01;100.00
7966;BME280;4028;43.272;26.932;2023-04-23T03:26:48;99230.34;;;8.01;100.00
7966;BME280;4028;43.272;26.932;2023-04-23T03:29:14;99231.31;;;8.00;100.00
7966;BME280;4028;43.272;26.932;2023-04-23T03:31:39;99231.94;;;8.13;100.00
7966;BME280;4028;43.272;26.932;2023-04-23T03:34:05;99232.31;;;8.20;100.00
7966;BME280;4028;43.272;26.932;2023-04-23T03:36:30;99207.91;;;8.06;100.00
7966;BME280;4028;43.272;26.932;2023-04-23T03:38:56;99236.47;;;8.22;100.00
7966;BME280;4028;43.272;26.932;2023-04-23T03:41:22;99239.56;;;8.27;100.00
7966;BME280;4028;43.272;26.932;2023-04-23T03:43:47;99240.53;;;8.26;100.00
7966;BME280;4028;43.272;26.932;2023-04-23T03:46:13;99243.13;;;8.38;100.00
7966;BME280;4028;43.272;26.932;2023-04-23T03:48:38;99233.38;;;8.49;100.00
7966;BME280;4028;43.272;26.932;2023-04-23T03:51:03;99241.94;;;8.63;100.00
7966;BME280;4028;43.272;26.932;2023-04-23T03:53:29;99232.59;;;8.79;100.00
7966;BME280;4028;43.272;26.932;2023-04-23T03:55:54;99240.91;;;8.96;100.00
7966;BME280;4028;43.272;26.932;2023-04-23T03:58:20;99254.88;;;9.17;100.00
7966;BME280;4028;43.272;26.932;2023-04-23T04:00:45;99242.88;;;9.44;100.00
7966;BME280;4028;43.272;26.932;2023-04-23T04:03:11;99245.19;;;9.87;100.00
7966;BME280;4028;43.272;26.932;2023-04-23T04:05:37;99255.28;;;10.51;100.00
7966;BME280;4028;43.272;26.932;2023-04-23T04:08:02;99241.53;;;11.41;100.00
7966;BME280;4028;43.272;26.932;2023-04-23T04:10:29;99238.41;;;12.37;100.00
7966;BME280;4028;43.272;26.932;2023-04-23T04:12:55;99248.03;;;13.34;100.00
7966;BME280;4028;43.272;26.932;2023-04-23T04:15:20;99245.47;;;14.17;100.00
7966;BME280;4028;43.272;26.932;2023-04-23T04:17:46;99249.13;;;14.89;100.00
7966;BME280;4028;43.272;26.932;2023-04-23T04:20:12;99254.91;;;15.25;89.87
7966;BME280;4028;43.272;26.932;2023-04-23T04:22:38;99249.84;;;14.75;88.67
7966;BME280;4028;43.272;26.932;2023-04-23T04:25:04;99259.56;;;13.93;98.60
7966;BME280;4028;43.272;26.932;2023-04-23T04:27:29;99253.50;;;13.06;100.00
7966;BME280;4028;43.272;26.932;2023-04-23T04:29:58;99262.06;;;12.30;100.00
7966;BME280;4028;43.272;26.932;2023-04-23T04:32:25;99259.63;;;11.74;100.00
7966;BME280;4028;43.272;26.932;2023-04-23T04:34:51;99243.00;;;11.26;100.00
7966;BME280;4028;43.272;26.932;2023-04-23T04:37:16;99262.81;;;11.12;100.00
7966;BME280;4028;43.272;26.932;2023-04-23T04:39:42;99259.25;;;10.94;100.00
7966;BME280;4028;43.272;26.932;2023-04-23T04:42:07;99263.84;;;10.92;100.00
7966;BME280;4028;43.272;26.932;2023-04-23T04:44:33;99274.31;;;10.74;100.00
7966;BME280;4028;43.272;26.932;2023-04-23T04:47:01;99275.47;;;10.62;100.00
7966;BME280;4028;43.272;26.932;2023-04-23T04:49:27;99288.44;;;10.55;100.00
7966;BME280;4028;43.272;26.932;2023-04-23T04:51:52;99279.38;;;10.58;100.00
7966;BME280;4028;43.272;26.932;2023-04-23T04:54:18;99288.44;;;10.65;100.00
7966;BME280;4028;43.272;26.932;2023-04-23T04:56:44;99292.44;;;10.59;100.00
7966;BME280;4028;43.272;26.932;2023-04-23T04:59:09;99260.72;;;10.40;100.00
7966;BME280;4028;43.272;26.932;2023-04-23T05:01:35;99291.34;;;10.62;100.00
7966;BME280;4028;43.272;26.932;2023-04-23T05:04:01;99295.94;;;10.60;100.00
7966;BME280;4028;43.272;26.932;2023-04-23T05:06:27;99288.13;;;10.58;100.00
7966;BME280;4028;43.272;26.932;2023-04-23T05:08:53;99300.81;;;10.64;100.00
7966;BME280;4028;43.272;26.932;2023-04-23T05:11:18;99296.63;;;10.62;100.00
7966;BME280;4028;43.272;26.932;2023-04-23T05:13:46;99290.94;;;10.66;100.00
7966;BME280;4028;43.272;26.932;2023-04-23T05:16:12;99294.69;;;10.54;100.00
7966;BME280;4028;43.272;26.932;2023-04-23T05:18:38;99297.72;;;10.69;100.00
7966;BME280;4028;43.272;26.932;2023-04-23T05:21:05;99295.66;;;10.73;100.00
7966;BME280;4028;43.272;26.932;2023-04-23T05:23:31;99292.28;;;10.90;100.00
7966;BME280;4028;43.272;26.932;2023-04-23T05:25:57;99289.09;;;10.86;100.00
7966;BME280;4028;43.272;26.932;2023-04-23T05:28:23;99302.19;;;10.88;100.00
7966;BME280;4028;43.272;26.932;2023-04-23T05:30:49;99303.97;;;11.07;100.00
7966;BME280;4028;43.272;26.932;2023-04-23T05:33:14;99284.69;;;11.14;100.00
7966;BME280;4028;43.272;26.932;2023-04-23T05:35:41;99304.25;;;11.41;100.00
7966;BME280;4028;43.272;26.932;2023-04-23T05:38:06;99308.25;;;11.55;100.00
7966;BME280;4028;43.272;26.932;2023-04-23T05:40:32;99295.19;;;11.71;100.00
7966;BME280;4028;43.272;26.932;2023-04-23T05:42:58;99263.81;;;11.49;100.00
7966;BME280;4028;43.272;26.932;2023-04-23T05:45:24;99297.34;;;11.95;100.00
7966;BME280;4028;43.272;26.932;2023-04-23T05:47:49;99306.88;;;12.51;100.00
7966;BME280;4028;43.272;26.932;2023-04-23T05:50:16;99304.25;;;12.95;100.00
7966;BME280;4028;43.272;26.932;2023-04-23T05:52:41;99296.41;;;13.45;100.00
7966;BME280;4028;43.272;26.932;2023-04-23T05:55:07;99290.31;;;13.87;100.00
7966;BME280;4028;43.272;26.932;2023-04-23T05:57:34;99303.88;;;14.43;100.00
7966;BME280;4028;43.272;26.932;2023-04-23T06:00:00;99295.59;;;15.03;100.00
7966;BME280;4028;43.272;26.932;2023-04-23T06:02:26;99293.94;;;15.66;100.00
7966;BME280;4028;43.272;26.932;2023-04-23T06:04:53;99297.22;;;16.15;100.00
7966;BME280;4028;43.272;26.932;2023-04-23T06:07:19;99304.72;;;16.66;100.00
7966;BME280;4028;43.272;26.932;2023-04-23T06:09:44;99289.94;;;17.01;93.55
7966;BME280;4028;43.272;26.932;2023-04-23T06:12:10;99300.75;;;17.37;89.22
7966;BME280;4028;43.272;26.932;2023-04-23T06:14:35;99298.72;;;17.68;83.07
7966;BME280;4028;43.272;26.932;2023-04-23T06:17:01;99291.53;;;17.99;80.75
7966;BME280;4028;43.272;26.932;2023-04-23T06:19:26;99295.78;;;18.29;75.35
7966;BME280;4028;43.272;26.932;2023-04-23T06:21:52;99284.63;;;18.47;71.74
7966;BME280;4028;43.272;26.932;2023-04-23T06:24:18;99298.19;;;18.67;67.60
7966;BME280;4028;43.272;26.932;2023-04-23T06:26:43;99300.59;;;18.77;66.24
7966;BME280;4028;43.272;26.932;2023-04-23T06:29:09;99303.97;;;19.13;65.14
7966;BME280;4028;43.272;26.932;2023-04-23T06:31:34;99302.47;;;19.32;64.31
7966;BME280;4028;43.272;26.932;2023-04-23T06:34:00;99302.75;;;19.44;61.63
7966;BME280;4028;43.272;26.932;2023-04-23T06:36:26;99303.22;;;19.19;61.74
7966;BME280;4028;43.272;26.932;2023-04-23T06:38:51;99307.47;;;19.35;62.81
7966;BME280;4028;43.272;26.932;2023-04-23T06:41:17;99279.84;;;19.48;61.07
7966;BME280;4028;43.272;26.932;2023-04-23T06:43:42;99302.19;;;19.90;59.88
7966;BME280;4028;43.272;26.932;2023-04-23T06:46:10;99304.47;;;19.93;57.66
7966;BME280;4028;43.272;26.932;2023-04-23T06:48:35;99302.47;;;20.08;56.42
7966;BME280;4028;43.272;26.932;2023-04-23T06:51:01;99297.94;;;20.09;56.16
7966;BME280;4028;43.272;26.932;2023-04-23T06:53:27;99297.59;;;20.38;56.88
7966;BME280;4028;43.272;26.932;2023-04-23T06:55:53;99301.81;;;20.67;55.79
7966;BME280;4028;43.272;26.932;2023-04-23T06:58:18;99303.91;;;20.92;52.91
7966;BME280;4028;43.272;26.932;2023-04-23T07:00:43;99295.41;;;21.01;50.77
7966;BME280;4028;43.272;26.932;2023-04-23T07:03:10;99307.59;;;21.17;52.34
7966;BME280;4028;43.272;26.932;2023-04-23T07:05:35;99298.13;;;21.35;51.36
7966;BME280;4028;43.272;26.932;2023-04-23T07:08:01;99303.66;;;21.53;48.78
7966;BME280;4028;43.272;26.932;2023-04-23T07:10:26;99314.00;;;21.49;48.86
7966;BME280;4028;43.272;26.932;2023-04-23T07:12:52;99309.88;;;21.60;48.78
7966;BME280;4028;43.272;26.932;2023-04-23T07:15:17;99306.09;;;21.68;48.67
7966;BME280;4028;43.272;26.932;2023-04-23T07:17:43;99307.38;;;22.10;46.05
7966;BME280;4028;43.272;26.932;2023-04-23T07:20:08;99305.47;;;21.72;43.84
7966;BME280;4028;43.272;26.932;2023-04-23T07:22:34;99313.97;;;21.69;44.33
7966;BME280;4028;43.272;26.932;2023-04-23T07:25:00;99302.59;;;21.54;43.44
7966;BME280;4028;43.272;26.932;2023-04-23T07:27:26;99310.16;;;21.97;44.42
7966;BME280;4028;43.272;26.932;2023-04-23T07:29:52;99304.31;;;22.00;45.51
7966;BME280;4028;43.272;26.932;2023-04-23T07:32:17;99281.28;;;22.04;43.33
7966;BME280;4028;43.272;26.932;2023-04-23T07:34:43;99305.06;;;22.27;43.83
7966;BME280;4028;43.272;26.932;2023-04-23T07:37:09;99304.56;;;22.43;43.89
7966;BME280;4028;43.272;26.932;2023-04-23T07:39:34;99292.94;;;21.98;43.27
7966;BME280;4028;43.272;26.932;2023-04-23T07:42:00;99301.38;;;21.43;41.93
7966;BME280;4028;43.272;26.932;2023-04-23T07:44:26;99303.47;;;21.01;44.00
7966;BME280;4028;43.272;26.932;2023-04-23T07:46:52;99302.44;;;21.22;43.83
7966;BME280;4028;43.272;26.932;2023-04-23T07:49:17;99301.31;;;21.70;39.50
7966;BME280;4028;43.272;26.932;2023-04-23T07:51:43;99295.41;;;22.06;40.68
7966;BME280;4028;43.272;26.932;2023-04-23T07:54:08;99296.44;;;22.75;40.82
7966;BME280;4028;43.272;26.932;2023-04-23T07:56:34;99299.34;;;22.48;38.59
7966;BME280;4028;43.272;26.932;2023-04-23T07:59:00;99298.97;;;22.70;39.08
7966;BME280;4028;43.272;26.932;2023-04-23T08:01:26;99298.97;;;23.01;37.23
7966;BME280;4028;43.272;26.932;2023-04-23T08:03:51;99306.63;;;23.29;36.53
7966;BME280;4028;43.272;26.932;2023-04-23T08:06:20;99295.34;;;23.32;37.02
7966;BME280;4028;43.272;26.932;2023-04-23T08:08:46;99298.91;;;23.08;37.28
7966;BME280;4028;43.272;26.932;2023-04-23T08:11:11;99278.41;;;23.44;36.72
7966;BME280;4028;43.272;26.932;2023-04-23T08:13:37;99294.13;;;23.28;34.88
7966;BME280;4028;43.272;26.932;2023-04-23T08:16:02;99290.09;;;23.19;36.11
7966;BME280;4028;43.272;26.932;2023-04-23T08:18:28;99294.63;;;23.62;37.14
7966;BME280;4028;43.272;26.932;2023-04-23T08:20:54;99293.22;;;23.78;33.99
7966;BME280;4028;43.272;26.932;2023-04-23T08:23:20;99290.16;;;23.93;33.37
7966;BME280;4028;43.272;26.932;2023-04-23T08:25:46;99293.28;;;24.08;32.84
7966;BME280;4028;43.272;26.932;2023-04-23T08:28:11;99290.13;;;23.56;32.73
7966;BME280;4028;43.272;26.932;2023-04-23T08:30:37;99299.75;;;23.08;32.29
7966;BME280;4028;43.272;26.932;2023-04-23T08:33:03;99290.09;;;23.19;32.77
7966;BME280;4028;43.272;26.932;2023-04-23T08:35:28;99301.53;;;23.40;31.38
7966;BME280;4028;43.272;26.932;2023-04-23T08:37:54;99289.78;;;23.27;32.20
7966;BME280;4028;43.272;26.932;2023-04-23T08:40:20;99284.44;;;23.46;32.20
7966;BME280;4028;43.272;26.932;2023-04-23T08:42:53;99287.47;;;23.31;33.06
7966;BME280;4028;43.272;26.932;2023-04-23T08:45:22;99292.47;;;23.09;33.39
7966;BME280;4028;43.272;26.932;2023-04-23T08:47:49;99280.84;;;22.83;33.99
7966;BME280;4028;43.272;26.932;2023-04-23T08:50:17;99276.63;;;22.94;34.64
7966;BME280;4028;43.272;26.932;2023-04-23T08:52:48;99273.31;;;23.35;34.93
7966;BME280;4028;43.272;26.932;2023-04-23T08:55:15;99279.09;;;23.57;32.65
7966;BME280;4028;43.272;26.932;2023-04-23T08:57:43;99273.06;;;23.80;34.23
7966;BME280;4028;43.272;26.932;2023-04-23T09:00:10;99276.09;;;24.02;33.15
7966;BME280;4028;43.272;26.932;2023-04-23T09:02:41;99273.50;;;23.96;31.96
7966;BME280;4028;43.272;26.932;2023-04-23T09:05:07;99268.75;;;23.91;31.73
7966;BME280;4028;43.272;26.932;2023-04-23T09:07:34;99272.00;;;23.81;31.72
7966;BME280;4028;43.272;26.932;2023-04-23T09:10:04;99264.34;;;23.78;32.12
7966;BME280;4028;43.272;26.932;2023-04-23T09:12:31;99273.53;;;23.52;32.81
7966;BME280;4028;43.272;26.932;2023-04-23T09:14:59;99268.03;;;23.22;32.97
7966;BME280;4028;43.272;26.932;2023-04-23T09:17:28;99274.94;;;23.18;34.26
7966;BME280;4028;43.272;26.932;2023-04-23T09:19:54;99260.09;;;23.71;34.62
7966;BME280;4028;43.272;26.932;2023-04-23T09:25:05;99258.00;;;24.33;31.92
7966;BME280;4028;43.272;26.932;2023-04-23T09:27:31;99250.47;;;24.77;32.52
7966;BME280;4028;43.272;26.932;2023-04-23T09:29:59;99255.41;;;24.68;31.24
7966;BME280;4028;43.272;26.932;2023-04-23T09:32:33;99253.41;;;24.63;31.80
7966;BME280;4028;43.272;26.932;2023-04-23T09:35:01;99251.41;;;24.71;31.84
7966;BME280;4028;43.272;26.932;2023-04-23T09:37:27;99244.59;;;24.68;32.17
7966;BME280;4028;43.272;26.932;2023-04-23T09:39:53;99248.56;;;24.54;30.21
7966;BME280;4028;43.272;26.932;2023-04-23T09:42:22;99241.19;;;23.71;30.43
7966;BME280;4028;43.272;26.932;2023-04-23T09:45:11;99241.75;;;23.91;31.13
7966;BME280;4028;43.272;26.932;2023-04-23T09:47:38;99239.59;;;23.63;32.35
7966;BME280;4028;43.272;26.932;2023-04-23T09:50:04;99235.00;;;24.12;31.28
7966;BME280;4028;43.272;26.932;2023-04-23T09:52:33;99226.56;;;24.20;31.22
7966;BME280;4028;43.272;26.932;2023-04-23T09:55:04;99210.59;;;24.30;29.92
7966;BME280;4028;43.272;26.932;2023-04-23T09:57:37;99228.06;;;24.46;31.26
7966;BME280;4028;43.272;26.932;2023-04-23T10:00:18;99239.75;;;24.47;30.43
7966;BME280;4028;43.272;26.932;2023-04-23T10:02:48;99230.81;;;24.16;31.57
7966;BME280;4028;43.272;26.932;2023-04-23T10:07:42;99228.78;;;23.81;28.34
7966;BME280;4028;43.272;26.932;2023-04-23T10:10:08;99225.22;;;23.63;30.10
7966;BME280;4028;43.272;26.932;2023-04-23T10:12:34;99213.28;;;23.89;29.51
7966;BME280;4028;43.272;26.932;2023-04-23T10:15:03;99220.44;;;24.13;29.75
7966;BME280;4028;43.272;26.932;2023-04-23T10:17:29;99217.63;;;23.90;30.45
7966;BME280;4028;43.272;26.932;2023-04-23T10:19:56;99218.16;;;23.98;31.26
7966;BME280;4028;43.272;26.932;2023-04-23T10:22:23;99206.13;;;23.94;31.34
7966;BME280;4028;43.272;26.932;2023-04-23T10:24:52;99211.00;;;23.37;31.50
7966;BME280;4028;43.272;26.932;2023-04-23T10:27:21;99204.50;;;23.93;34.34
7966;BME280;4028;43.272;26.932;2023-04-23T10:29:50;99202.75;;;23.69;33.33
7966;BME280;4028;43.272;26.932;2023-04-23T10:32:17;99195.56;;;23.93;32.80
7966;BME280;4028;43.272;26.932;2023-04-23T10:34:44;99194.53;;;24.05;30.86
7966;BME280;4028;43.272;26.932;2023-04-23T10:37:10;99187.44;;;24.23;29.74
7966;BME280;4028;43.272;26.932;2023-04-23T10:39:36;99191.50;;;24.44;31.94
7966;BME280;4028;43.272;26.932;2023-04-23T10:42:03;99189.88;;;24.54;30.04
7966;BME280;4028;43.272;26.932;2023-04-23T10:44:36;99188.81;;;24.55;30.58
7966;BME280;4028;43.272;26.932;2023-04-23T10:47:03;99197.16;;;24.12;28.55
7966;BME280;4028;43.272;26.932;2023-04-23T10:49:30;99184.34;;;24.07;30.17
7966;BME280;4028;43.272;26.932;2023-04-23T10:52:03;99188.69;;;24.08;28.88
7966;BME280;4028;43.272;26.932;2023-04-23T10:54:30;99179.88;;;24.13;30.17
7966;BME280;4028;43.272;26.932;2023-04-23T10:57:04;99185.84;;;24.45;29.23
7966;BME280;4028;43.272;26.932;2023-04-23T10:59:32;99172.97;;;24.17;30.68
7966;BME280;4028;43.272;26.932;2023-04-23T11:02:05;99147.72;;;24.23;30.84
7966;BME280;4028;43.272;26.932;2023-04-23T11:04:32;99177.69;;;24.33;29.64
7966;BME280;4028;43.272;26.932;2023-04-23T11:07:09;99173.56;;;24.31;29.22
7966;BME280;4028;43.272;26.932;2023-04-23T11:09:46;99170.34;;;24.10;30.02
7966;BME280;4028;43.272;26.932;2023-04-23T11:12:13;99165.66;;;24.06;29.77
7966;BME280;4028;43.272;26.932;2023-04-23T11:14:55;99167.50;;;24.05;30.79
7966;BME280;4028;43.272;26.932;2023-04-23T11:17:23;99171.53;;;24.03;30.78
7966;BME280;4028;43.272;26.932;2023-04-23T11:20:14;99155.25;;;24.21;29.79
7966;BME280;4028;43.272;26.932;2023-04-23T11:22:49;99158.28;;;23.83;28.91
7966;BME280;4028;43.272;26.932;2023-04-23T11:25:24;99159.34;;;23.15;29.74
7966;BME280;4028;43.272;26.932;2023-04-23T11:27:52;99155.44;;;23.11;30.27
7966;BME280;4028;43.272;26.932;2023-04-23T11:30:23;99160.75;;;22.99;29.32
7966;BME280;4028;43.272;26.932;2023-04-23T11:32:53;99150.63;;;23.31;31.27
7966;BME280;4028;43.272;26.932;2023-04-23T11:35:21;99140.69;;;23.62;30.40
7966;BME280;4028;43.272;26.932;2023-04-23T11:37:47;99126.41;;;23.73;30.76
7966;BME280;4028;43.272;26.932;2023-04-23T11:40:15;99142.50;;;23.50;30.33
7966;BME280;4028;43.272;26.932;2023-04-23T11:42:52;99141.94;;;23.59;30.99
7966;BME280;4028;43.272;26.932;2023-04-23T11:45:19;99136.94;;;23.63;31.47
7966;BME280;4028;43.272;26.932;2023-04-23T11:47:47;99135.13;;;23.75;31.15
7966;BME280;4028;43.272;26.932;2023-04-23T11:50:16;99141.28;;;23.64;30.69
7966;BME280;4028;43.272;26.932;2023-04-23T11:52:43;99143.97;;;23.34;32.22
7966;BME280;4028;43.272;26.932;2023-04-23T11:55:08;99131.34;;;23.28;30.85
7966;BME280;4028;43.272;26.932;2023-04-23T11:57:48;99144.56;;;22.99;30.70
7966;BME280;4028;43.272;26.932;2023-04-23T12:02:54;99126.84;;;22.85;31.13
7966;BME280;4028;43.272;26.932;2023-04-23T12:05:30;99120.47;;;22.79;31.02
7966;BME280;4028;43.272;26.932;2023-04-23T12:08:16;99122.81;;;23.13;31.16
7966;BME280;4028;43.272;26.932;2023-04-23T12:10:45;99124.47;;;23.14;30.27
7966;BME280;4028;43.272;26.932;2023-04-23T12:13:22;99115.22;;;22.84;30.60
7966;BME280;4028;43.272;26.932;2023-04-23T12:15:52;99113.31;;;23.10;31.44
7966;BME280;4028;43.272;26.932;2023-04-23T12:18:29;99108.19;;;23.02;30.32
7966;BME280;4028;43.272;26.932;2023-04-23T12:20:55;99109.34;;;22.88;29.65
7966;BME280;4028;43.272;26.932;2023-04-23T12:23:27;99104.41;;;22.66;29.80
7966;BME280;4028;43.272;26.932;2023-04-23T12:25:54;99102.28;;;22.50;30.89
7966;BME280;4028;43.272;26.932;2023-04-23T12:28:23;99097.25;;;22.78;30.82
7966;BME280;4028;43.272;26.932;2023-04-23T12:30:49;99088.69;;;22.81;29.79
7966;BME280;4028;43.272;26.932;2023-04-23T12:33:15;99085.16;;;22.81;30.86
7966;BME280;4028;43.272;26.932;2023-04-23T12:38:20;99087.75;;;22.94;28.76
7966;BME280;4028;43.272;26.932;2023-04-23T12:40:47;99088.47;;;22.83;29.28
7966;BME280;4028;43.272;26.932;2023-04-23T12:43:13;99077.69;;;23.01;30.89
7966;BME280;4028;43.272;26.932;2023-04-23T12:45:38;99063.00;;;22.79;30.15
7966;BME280;4028;43.272;26.932;2023-04-23T12:48:04;99079.53;;;22.82;30.01
7966;BME280;4028;43.272;26.932;2023-04-23T12:50:29;99049.50;;;22.79;29.47
7966;BME280;4028;43.272;26.932;2023-04-23T12:52:55;99077.59;;;22.71;29.79
7966;BME280;4028;43.272;26.932;2023-04-23T12:55:20;99063.28;;;22.71;29.72
7966;BME280;4028;43.272;26.932;2023-04-23T12:57:46;99068.31;;;21.67;30.83
7966;BME280;4028;43.272;26.932;2023-04-23T13:00:12;99059.84;;;21.25;31.71
7966;BME280;4028;43.272;26.932;2023-04-23T13:02:37;99062.41;;;21.52;31.18
7966;BME280;4028;43.272;26.932;2023-04-23T13:05:03;99037.56;;;21.82;30.24
7966;BME280;4028;43.272;26.932;2023-04-23T13:07:29;99044.50;;;21.96;31.73
7966;BME280;4028;43.272;26.932;2023-04-23T13:09:55;99046.19;;;22.40;31.79
7966;BME280;4028;43.272;26.932;2023-04-23T13:12:21;99036.97;;;22.66;31.50
7966;BME280;4028;43.272;26.932;2023-04-23T13:14:47;99046.19;;;22.77;29.27
7966;BME280;4028;43.272;26.932;2023-04-23T13:17:13;99044.94;;;22.43;30.63
7966;BME280;4028;43.272;26.932;2023-04-23T13:19:39;99020.03;;;21.97;30.45